Time;durP1;ratioP1;P1;durP2;ratioP2;P2;SDS_P1;SDS_P2;PMS_P1;PMS_P2;Temp;Humidity;BMP_temperature;BMP_pressure;BME280_temperature;BME280_humidity;BME280_pressure;Samples;Min_cycle;Max_cycle;Signal;HPM_P1;HPM_P2
2021/11/07 00:05:05;;;;;;;36.80;25.33;;;11.20;99.90;;;;;;5103939;28;20258;-88
2021/11/07 00:07:51;;;;;;;39.00;25.08;;;11.20;99.90;;;;;;5097092;28;20235;-89
2021/11/07 00:10:26;;;;;;;39.75;26.17;;;11.20;99.90;;;;;;5094294;28;20702;-88
2021/11/07 00:12:59;;;;;;;37.53;25.35;;;11.20;99.90;;;;;;5094253;28;20237;-89
2021/11/07 00:15:25;;;;;;;39.60;25.60;;;11.10;99.90;;;;;;5093850;28;20520;-93
2021/11/07 00:17:55;;;;;;;43.93;28.00;;;11.10;99.90;;;;;;5095804;28;20255;-94
2021/11/07 00:20:29;;;;;;;29.88;21.98;;;11.10;99.90;;;;;;5099896;28;20413;-94
2021/11/07 00:23:14;;;;;;;31.38;23.80;;;11.10;99.90;;;;;;5094463;28;20223;-89
2021/11/07 00:25:47;;;;;;;38.40;24.58;;;11.10;99.90;;;;;;5107405;28;20244;-93
2021/11/07 00:28:35;;;;;;;34.20;24.40;;;11.10;99.90;;;;;;5098121;28;20230;-89
2021/11/07 00:36:33;;;;;;;32.92;25.98;;;11.10;99.90;;;;;;5095234;28;20241;-89
2021/11/07 00:41:37;;;;;;;37.67;25.60;;;11.10;99.90;;;;;;5095042;28;20172;-94
2021/11/07 00:44:07;;;;;;;35.55;23.77;;;11.10;99.90;;;;;;5093416;28;20220;-89
2021/11/07 00:46:52;;;;;;;35.80;26.83;;;11.10;99.90;;;;;;5093785;28;20267;-88
2021/11/07 00:49:24;;;;;;;36.38;25.92;;;11.10;99.90;;;;;;5094686;28;20203;-89
2021/11/07 00:52:17;;;;;;;39.70;26.63;;;11.10;99.90;;;;;;5098542;28;20218;-88
2021/11/07 01:00:00;;;;;;;42.93;27.60;;;11.00;99.90;;;;;;5099825;28;20224;-92
2021/11/07 01:02:30;;;;;;;35.83;25.83;;;11.00;99.90;;;;;;5093611;28;20184;-90
2021/11/07 01:04:57;;;;;;;38.53;25.75;;;11.00;99.90;;;;;;5093408;28;20204;-94
2021/11/07 01:07:24;;;;;;;36.42;25.63;;;11.00;99.90;;;;;;5092999;28;20232;-93
2021/11/07 01:09:52;;;;;;;41.55;27.02;;;11.00;99.90;;;;;;5093240;28;20192;-90
2021/11/07 01:12:21;;;;;;;40.30;26.98;;;11.00;99.90;;;;;;5093233;28;20517;-88
2021/11/07 01:14:51;;;;;;;42.70;27.20;;;11.00;99.90;;;;;;5093412;28;20212;-94
2021/11/07 01:17:16;;;;;;;38.85;27.15;;;11.00;99.90;;;;;;5093372;28;20267;-89
2021/11/07 01:19:43;;;;;;;34.13;26.60;;;11.00;99.90;;;;;;5093196;28;20682;-89
2021/11/07 01:22:14;;;;;;;40.45;28.48;;;11.00;99.90;;;;;;5099132;28;20319;-88
2021/11/07 01:24:47;;;;;;;39.90;27.27;;;11.00;99.90;;;;;;5106657;28;20230;-88
2021/11/07 01:27:24;;;;;;;43.63;28.90;;;11.00;99.90;;;;;;5105944;28;20219;-88
2021/11/07 01:29:53;;;;;;;43.13;28.58;;;11.00;99.90;;;;;;5094300;28;20203;-94
2021/11/07 01:32:22;;;;;;;42.97;29.63;;;10.90;99.90;;;;;;5093510;28;20184;-89
2021/11/07 01:34:56;;;;;;;41.20;27.63;;;10.90;99.90;;;;;;5093220;28;20216;-89
2021/11/07 01:37:25;;;;;;;41.58;29.25;;;10.90;99.90;;;;;;5094616;28;20635;-88
2021/11/07 01:42:28;;;;;;;50.90;33.03;;;10.90;99.90;;;;;;5094905;28;20198;-89
2021/11/07 01:45:00;;;;;;;41.95;30.33;;;10.90;99.90;;;;;;5097102;28;20934;-94
2021/11/07 01:47:27;;;;;;;42.97;30.45;;;10.90;99.90;;;;;;5097272;28;20195;-89
2021/11/07 01:49:53;;;;;;;38.45;28.85;;;10.90;99.90;;;;;;5105784;28;20218;-91
2021/11/07 01:52:21;;;;;;;42.88;30.75;;;10.90;99.90;;;;;;5110760;28;20655;-92
2021/11/07 01:54:50;;;;;;;38.60;29.02;;;10.90;99.90;;;;;;5097788;28;20212;-89
2021/11/07 01:57:21;;;;;;;45.28;31.15;;;10.90;99.90;;;;;;5098376;28;20168;-94
2021/11/07 01:59:49;;;;;;;41.45;30.05;;;10.90;99.90;;;;;;5097684;28;20185;-88
2021/11/07 02:02:16;;;;;;;41.65;31.70;;;10.90;99.90;;;;;;5098306;28;20180;-94
2021/11/07 02:04:43;;;;;;;44.28;31.42;;;10.90;99.90;;;;;;5096626;28;20188;-88
2021/11/07 02:07:11;;;;;;;45.85;30.33;;;10.90;99.90;;;;;;5096283;28;20239;-94
2021/11/07 02:09:37;;;;;;;43.72;30.58;;;10.90;99.90;;;;;;5104620;28;20649;-94
2021/11/07 02:12:06;;;;;;;43.90;31.05;;;10.90;99.90;;;;;;5098779;28;20253;-88
2021/11/07 02:14:32;;;;;;;44.03;30.90;;;10.90;99.90;;;;;;5099846;28;20207;-89
2021/11/07 02:16:59;;;;;;;42.13;30.27;;;10.90;99.90;;;;;;5100696;28;20181;-88
2021/11/07 02:19:25;;;;;;;48.75;32.20;;;10.90;99.90;;;;;;5107750;28;20207;-91
2021/11/07 02:21:52;;;;;;;46.55;31.83;;;10.90;99.90;;;;;;5112006;28;20194;-93
2021/11/07 02:24:20;;;;;;;41.93;30.67;;;10.90;99.90;;;;;;5116020;28;20201;-94
2021/11/07 02:27:01;;;;;;;44.60;31.30;;;10.90;99.90;;;;;;5100752;28;20173;-89
2021/11/07 02:29:29;;;;;;;47.83;33.92;;;10.90;99.90;;;;;;5097194;28;20216;-94
2021/11/07 02:31:56;;;;;;;43.75;31.83;;;10.90;99.90;;;;;;5095947;28;20277;-92
2021/11/07 02:34:25;;;;;;;43.70;29.83;;;10.90;99.90;;;;;;5096860;28;20219;-93
2021/11/07 02:36:51;;;;;;;44.38;31.67;;;10.90;99.90;;;;;;5095793;28;20184;-89
2021/11/07 02:39:18;;;;;;;46.13;30.80;;;10.90;99.90;;;;;;5095830;28;20224;-93
2021/11/07 02:41:46;;;;;;;42.08;31.35;;;10.90;99.90;;;;;;5096278;28;20698;-94
2021/11/07 02:44:29;;;;;;;45.00;31.95;;;10.80;99.90;;;;;;5095997;28;20200;-90
2021/11/07 02:46:55;;;;;;;48.83;30.83;;;10.80;99.90;;;;;;5098050;28;20279;-94
2021/11/07 02:49:21;;;;;;;44.33;31.50;;;10.90;99.90;;;;;;5106475;28;20200;-94
2021/11/07 02:51:47;;;;;;;43.30;31.27;;;10.80;99.90;;;;;;5098318;28;20180;-89
2021/11/07 02:54:13;;;;;;;40.47;30.33;;;10.80;99.90;;;;;;5097462;28;20465;-93
2021/11/07 02:56:39;;;;;;;44.47;31.80;;;10.80;99.90;;;;;;5098070;28;20181;-93
2021/11/07 02:59:07;;;;;;;44.00;31.13;;;10.80;99.90;;;;;;5095927;28;20204;-92
2021/11/07 03:01:33;;;;;;;43.20;30.67;;;10.80;99.90;;;;;;5095733;28;20412;-89
2021/11/07 03:04:04;;;;;;;42.25;30.75;;;10.80;99.90;;;;;;5095812;28;20196;-94
2021/11/07 03:06:31;;;;;;;41.55;32.15;;;10.80;99.90;;;;;;5094864;28;20319;-94
2021/11/07 03:08:58;;;;;;;40.50;30.85;;;10.70;99.90;;;;;;5096966;28;20279;-88
2021/11/07 03:11:24;;;;;;;48.00;33.53;;;10.70;99.90;;;;;;5101075;28;20172;-93
2021/11/07 03:13:50;;;;;;;48.22;32.60;;;10.70;99.90;;;;;;5113352;28;20242;-91
2021/11/07 03:16:16;;;;;;;47.00;34.28;;;10.60;99.90;;;;;;5095367;28;20659;-89
2021/11/07 03:18:43;;;;;;;45.25;33.45;;;10.60;99.90;;;;;;5095398;28;20279;-89
2021/11/07 03:21:11;;;;;;;54.28;35.53;;;10.50;99.90;;;;;;5094953;28;20268;-94
2021/11/07 03:23:49;;;;;;;54.33;37.22;;;10.50;99.90;;;;;;5100433;28;20668;-93
2021/11/07 03:26:17;;;;;;;50.42;35.90;;;10.40;99.90;;;;;;5099825;28;20632;-94
2021/11/07 03:28:45;;;;;;;55.10;37.83;;;10.30;99.90;;;;;;5095307;28;20270;-89
2021/11/07 03:31:37;;;;;;;59.03;40.40;;;10.30;99.90;;;;;;5095084;28;20259;-89
2021/11/07 03:34:03;;;;;;;60.95;39.80;;;10.30;99.90;;;;;;5095500;28;20654;-94
2021/11/07 03:36:42;;;;;;;60.88;38.97;;;10.20;99.90;;;;;;5096458;28;20177;-88
2021/11/07 03:39:09;;;;;;;65.20;41.95;;;10.20;99.90;;;;;;5101041;28;20203;-89
2021/11/07 03:41:35;;;;;;;62.13;41.72;;;10.10;99.90;;;;;;5110291;28;20275;-88
2021/11/07 03:44:01;;;;;;;67.37;41.43;;;10.10;99.90;;;;;;5103288;28;20223;-89
2021/11/07 03:46:26;;;;;;;57.43;41.07;;;10.10;99.90;;;;;;5095029;28;20181;-88
2021/11/07 03:48:52;;;;;;;71.80;42.73;;;10.10;99.90;;;;;;5094673;28;20673;-93
2021/11/07 03:51:18;;;;;;;67.07;42.40;;;10.10;99.90;;;;;;5094591;28;20395;-94
2021/11/07 03:53:44;;;;;;;67.13;42.30;;;10.10;99.90;;;;;;5094281;28;20223;-95
2021/11/07 03:56:10;;;;;;;61.60;41.10;;;10.00;99.90;;;;;;5094517;28;20417;-94
2021/11/07 03:58:36;;;;;;;61.07;41.63;;;10.00;99.90;;;;;;5094320;28;20660;-88
2021/11/07 04:01:02;;;;;;;59.83;40.60;;;10.00;99.90;;;;;;5093963;28;20419;-88
2021/11/07 04:03:28;;;;;;;68.23;42.93;;;10.00;99.90;;;;;;5095384;28;20245;-93
2021/11/07 04:05:54;;;;;;;63.23;42.50;;;9.90;99.90;;;;;;5094877;28;20969;-93
2021/11/07 04:08:23;;;;;;;62.30;42.50;;;9.90;99.90;;;;;;5097810;28;20439;-93
2021/11/07 04:10:49;;;;;;;68.75;44.03;;;9.90;99.90;;;;;;5101078;28;20233;-89
2021/11/07 04:13:16;;;;;;;66.73;44.33;;;9.80;99.90;;;;;;5097554;28;20602;-89
2021/11/07 04:15:42;;;;;;;67.32;42.00;;;9.80;99.90;;;;;;5117472;28;20930;-93
2021/11/07 04:18:07;;;;;;;66.83;42.37;;;9.70;99.90;;;;;;5110060;28;20231;-93
2021/11/07 04:20:33;;;;;;;69.17;44.00;;;9.70;99.90;;;;;;5098346;28;20187;-94
2021/11/07 04:23:00;;;;;;;67.97;44.47;;;9.70;99.90;;;;;;5103265;28;20390;-94
2021/11/07 04:25:26;;;;;;;65.70;41.45;;;9.70;99.90;;;;;;5115557;28;20375;-89
2021/11/07 04:27:52;;;;;;;65.32;41.55;;;9.70;99.90;;;;;;5097081;28;20642;-93
2021/11/07 04:30:18;;;;;;;70.25;44.30;;;9.70;99.90;;;;;;5097286;28;20172;-94
2021/11/07 04:32:44;;;;;;;73.93;44.90;;;9.60;99.90;;;;;;5097646;28;20214;-89
2021/11/07 04:35:11;;;;;;;66.75;42.28;;;9.60;99.90;;;;;;5097273;28;20472;-89
2021/11/07 04:37:40;;;;;;;64.55;40.13;;;9.60;99.90;;;;;;5097210;28;20207;-89
2021/11/07 04:40:07;;;;;;;67.57;41.20;;;9.60;99.90;;;;;;5115056;28;20259;-93
2021/11/07 04:42:37;;;;;;;62.83;38.90;;;9.60;99.90;;;;;;5097223;28;20180;-93
2021/11/07 04:45:04;;;;;;;71.72;43.22;;;9.60;99.90;;;;;;5097056;28;20180;-89
2021/11/07 04:47:30;;;;;;;60.35;39.90;;;9.60;99.90;;;;;;5098326;28;20171;-93
2021/11/07 04:49:56;;;;;;;61.30;40.95;;;9.60;99.90;;;;;;5121633;28;20196;-92
2021/11/07 04:52:22;;;;;;;64.13;40.77;;;9.60;99.90;;;;;;5109651;28;20179;-89
2021/11/07 04:54:49;;;;;;;61.17;37.27;;;9.60;99.90;;;;;;5114771;28;20243;-94
2021/11/07 04:57:15;;;;;;;63.85;38.25;;;9.60;99.90;;;;;;5097199;28;20655;-92
2021/11/07 04:59:40;;;;;;;59.47;39.53;;;9.60;99.90;;;;;;5115127;28;20191;-89
2021/11/07 05:02:07;;;;;;;62.53;40.13;;;9.60;99.90;;;;;;5097053;28;20620;-93
2021/11/07 05:04:35;;;;;;;60.92;40.50;;;9.60;99.90;;;;;;5096728;28;20403;-94
2021/11/07 05:07:00;;;;;;;59.95;40.22;;;9.60;99.90;;;;;;5114604;28;20715;-89
2021/11/07 05:09:28;;;;;;;60.40;39.70;;;9.60;99.90;;;;;;5096989;28;20200;-89
2021/11/07 05:11:54;;;;;;;61.05;37.63;;;9.60;99.90;;;;;;5115181;28;20175;-89
2021/11/07 05:14:20;;;;;;;61.00;39.53;;;9.50;99.90;;;;;;5114418;28;20208;-89
2021/11/07 05:16:46;;;;;;;59.92;38.95;;;9.50;99.90;;;;;;5099853;28;20172;-94
2021/11/07 05:19:11;;;;;;;59.03;38.63;;;9.50;99.90;;;;;;5104362;28;20298;-94
2021/11/07 05:21:39;;;;;;;61.53;38.33;;;9.50;99.90;;;;;;5108905;28;20178;-89
2021/11/07 05:24:06;;;;;;;61.08;37.67;;;9.50;99.90;;;;;;5107052;28;20563;-94
2021/11/07 05:26:33;;;;;;;54.75;37.20;;;9.50;99.90;;;;;;5103890;28;20178;-89
2021/11/07 05:28:59;;;;;;;57.25;38.10;;;9.60;99.90;;;;;;5118815;28;20569;-94
2021/11/07 05:31:25;;;;;;;79.65;43.90;;;9.60;99.90;;;;;;5100721;28;20508;-94
2021/11/07 05:33:51;;;;;;;60.20;38.28;;;9.60;99.90;;;;;;5118503;28;20294;-94
2021/11/07 05:36:18;;;;;;;58.57;38.33;;;9.70;99.90;;;;;;5101124;28;20202;-89
2021/11/07 05:38:43;;;;;;;50.08;34.47;;;9.70;99.90;;;;;;5118384;28;20467;-89
2021/11/07 05:41:09;;;;;;;55.80;35.83;;;9.70;99.90;;;;;;5100448;28;20628;-95
2021/11/07 05:43:35;;;;;;;59.57;36.33;;;9.80;99.90;;;;;;5100384;28;20200;-93
2021/11/07 05:46:01;;;;;;;56.80;35.70;;;9.80;99.90;;;;;;5127842;28;20533;-89
2021/11/07 05:48:27;;;;;;;54.55;34.55;;;9.80;99.90;;;;;;5100897;28;20357;-94
2021/11/07 05:50:53;;;;;;;53.73;35.50;;;9.80;99.90;;;;;;5101453;28;20213;-88
2021/11/07 05:53:19;;;;;;;53.03;35.00;;;9.80;99.90;;;;;;5112658;28;20249;-93
2021/11/07 05:55:45;;;;;;;53.37;35.87;;;9.80;99.90;;;;;;5122448;28;20168;-94
2021/11/07 05:58:11;;;;;;;54.70;36.87;;;9.80;99.90;;;;;;5118193;28;20282;-89
2021/11/07 06:00:37;;;;;;;51.30;33.67;;;9.90;99.90;;;;;;5100532;28;20542;-90
2021/11/07 06:03:06;;;;;;;52.78;36.17;;;9.90;99.90;;;;;;5118182;28;20196;-89
2021/11/07 06:05:34;;;;;;;52.40;35.22;;;9.90;99.90;;;;;;5100205;28;20211;-94
2021/11/07 06:08:00;;;;;;;59.83;35.28;;;9.90;99.90;;;;;;5099910;28;20326;-88
2021/11/07 06:10:26;;;;;;;51.95;34.10;;;9.90;99.90;;;;;;5100023;28;20202;-94
2021/11/07 06:12:53;;;;;;;48.70;33.60;;;9.90;99.90;;;;;;5118139;28;20169;-88
2021/11/07 06:15:19;;;;;;;48.55;32.67;;;9.90;99.90;;;;;;5101110;28;20233;-89
2021/11/07 06:17:44;;;;;;;49.90;33.90;;;9.90;99.90;;;;;;5109584;28;20172;-88
2021/11/07 06:20:11;;;;;;;49.87;32.87;;;9.90;99.90;;;;;;5100298;28;20402;-90
2021/11/07 06:22:37;;;;;;;46.03;31.08;;;10.00;99.90;;;;;;5099565;28;20268;-89
2021/11/07 06:25:04;;;;;;;51.90;34.17;;;10.00;99.90;;;;;;5117817;28;20172;-94
2021/11/07 06:27:30;;;;;;;48.13;33.80;;;10.00;99.90;;;;;;5099859;28;20183;-94
2021/11/07 06:29:57;;;;;;;52.55;37.35;;;10.00;99.90;;;;;;5116182;28;20195;-93
2021/11/07 06:32:25;;;;;;;101.55;61.83;;;10.00;99.90;;;;;;5099866;28;20186;-89
2021/11/07 06:34:50;;;;;;;98.78;65.68;;;10.00;99.90;;;;;;5101700;28;20299;-94
2021/11/07 06:37:16;;;;;;;104.30;71.50;;;10.10;99.90;;;;;;5106478;28;20180;-95
2021/11/07 06:39:42;;;;;;;65.70;44.83;;;10.10;99.90;;;;;;5102962;28;20199;-93
2021/11/07 06:42:09;;;;;;;65.53;47.20;;;10.10;99.90;;;;;;5111460;28;20394;-90
2021/11/07 06:44:35;;;;;;;60.45;43.63;;;10.10;99.90;;;;;;5134585;28;20202;-93
2021/11/07 06:47:02;;;;;;;49.87;38.87;;;10.20;99.90;;;;;;5118769;28;20215;-93
2021/11/07 06:49:28;;;;;;;49.38;32.83;;;10.20;99.90;;;;;;5117142;28;20410;-94
2021/11/07 06:51:54;;;;;;;50.47;35.20;;;10.20;99.90;;;;;;5099094;28;20184;-93
2021/11/07 06:54:25;;;;;;;49.75;33.13;;;10.30;99.90;;;;;;5098859;28;20250;-94
2021/11/07 06:56:51;;;;;;;47.15;32.22;;;10.30;99.90;;;;;;5098793;28;20194;-89
2021/11/07 06:59:17;;;;;;;45.30;32.47;;;10.30;99.90;;;;;;5099450;28;20183;-88
2021/11/07 07:01:43;;;;;;;45.30;30.93;;;10.30;99.90;;;;;;5117139;28;20180;-89
2021/11/07 07:04:09;;;;;;;51.40;32.20;;;10.40;99.90;;;;;;5098806;28;20567;-89
2021/11/07 07:06:36;;;;;;;46.35;30.23;;;10.40;99.90;;;;;;5098730;28;20438;-89
2021/11/07 07:09:16;;;;;;;44.40;29.70;;;10.40;99.90;;;;;;5098557;28;20286;-94
2021/11/07 07:11:47;;;;;;;48.22;30.92;;;10.40;99.90;;;;;;5098723;28;20237;-94
2021/11/07 07:14:24;;;;;;;44.55;30.52;;;10.40;99.90;;;;;;5104556;28;20227;-89
2021/11/07 07:17:01;;;;;;;52.47;34.75;;;10.50;99.90;;;;;;5120938;28;20214;-88
2021/11/07 07:19:43;;;;;;;55.70;36.22;;;10.50;99.90;;;;;;5098369;28;20675;-89
2021/11/07 07:34:53;;;;;;;47.30;32.43;;;10.50;99.90;;;;;;5116512;28;20294;-88
2021/11/07 07:37:18;;;;;;;46.85;33.45;;;10.60;99.90;;;;;;5102079;28;20219;-88
2021/11/07 07:39:45;;;;;;;47.63;32.13;;;10.60;99.90;;;;;;5121185;28;20187;-87
2021/11/07 07:42:11;;;;;;;44.85;29.30;;;10.60;99.90;;;;;;5098258;28;20477;-89
2021/11/07 07:44:36;;;;;;;42.23;29.73;;;10.60;99.90;;;;;;5098224;28;20587;-88
2021/11/07 07:47:03;;;;;;;40.40;28.43;;;10.60;99.90;;;;;;5098046;28;20439;-95
2021/11/07 07:49:29;;;;;;;43.55;28.60;;;10.60;99.90;;;;;;5097853;28;20191;-94
2021/11/07 07:51:55;;;;;;;42.85;27.17;;;10.60;99.90;;;;;;5098064;28;20585;-89
2021/11/07 07:54:23;;;;;;;44.67;28.88;;;10.60;99.90;;;;;;5097668;28;20235;-89
2021/11/07 07:56:48;;;;;;;41.42;28.63;;;10.60;99.90;;;;;;5106502;28;20174;-91
2021/11/07 07:59:15;;;;;;;39.67;27.50;;;10.60;99.90;;;;;;5113949;28;20191;-94
2021/11/07 08:01:41;;;;;;;37.70;27.67;;;10.60;99.90;;;;;;5098202;28;20520;-88
2021/11/07 08:04:08;;;;;;;47.67;32.42;;;10.60;99.90;;;;;;5097723;28;20206;-94
2021/11/07 08:06:33;;;;;;;52.95;33.80;;;10.60;99.90;;;;;;5096337;28;20310;-89
2021/11/07 08:08:59;;;;;;;46.17;29.87;;;10.60;99.90;;;;;;5097541;28;20290;-89
2021/11/07 08:11:26;;;;;;;39.73;27.03;;;10.60;99.90;;;;;;5119097;28;20391;-94
2021/11/07 08:13:53;;;;;;;43.83;27.73;;;10.60;99.90;;;;;;5115525;28;20513;-94
2021/11/07 08:16:20;;;;;;;45.28;30.70;;;10.60;99.90;;;;;;5097776;28;20595;-88
2021/11/07 08:18:47;;;;;;;48.15;34.20;;;10.70;99.90;;;;;;5102858;28;20271;-88
2021/11/07 08:21:13;;;;;;;42.78;29.17;;;10.70;99.90;;;;;;5113357;28;20180;-90
2021/11/07 08:23:39;;;;;;;44.78;29.60;;;10.80;99.90;;;;;;5108391;28;20222;-95
2021/11/07 08:26:05;;;;;;;49.37;33.33;;;10.80;99.90;;;;;;5104995;28;20187;-89
2021/11/07 08:28:32;;;;;;;44.40;31.05;;;10.80;99.90;;;;;;5097689;28;20482;-94
2021/11/07 08:31:13;;;;;;;46.27;30.53;;;10.80;99.90;;;;;;5115233;28;20663;-88
2021/11/07 08:33:39;;;;;;;42.17;26.45;;;10.90;99.90;;;;;;5097554;28;20545;-94
2021/11/07 08:36:13;;;;;;;45.33;30.70;;;11.00;99.90;;;;;;5097298;28;20590;-94
2021/11/07 08:38:56;;;;;;;45.90;32.08;;;11.00;99.90;;;;;;5096839;28;20543;-93
2021/11/07 08:41:23;;;;;;;40.38;27.05;;;11.10;99.90;;;;;;5096911;28;20188;-94
2021/11/07 09:05:34;;;;;;;39.40;30.02;;;11.20;99.90;;;;;;5133517;28;20195;-90
2021/11/07 09:10:30;;;;;;;33.50;22.77;;;11.30;99.90;;;;;;5114757;28;20209;-94
2021/11/07 09:12:56;;;;;;;31.85;22.35;;;11.30;99.90;;;;;;5096939;28;20263;-94
2021/11/07 09:15:25;;;;;;;33.67;22.77;;;11.30;99.90;;;;;;5096626;28;20276;-89
2021/11/07 09:17:51;;;;;;;35.45;23.88;;;11.30;99.90;;;;;;5096750;28;20175;-94
2021/11/07 09:20:26;;;;;;;33.50;23.13;;;11.40;99.90;;;;;;5114683;28;20192;-89
2021/11/07 09:22:57;;;;;;;31.80;22.92;;;11.40;99.90;;;;;;5103503;28;20195;-94
2021/11/07 09:25:30;;;;;;;35.08;26.42;;;11.40;99.90;;;;;;5100880;28;20172;-93
2021/11/07 09:28:03;;;;;;;31.98;21.75;;;11.50;99.90;;;;;;5097692;28;20298;-88
2021/11/07 09:31:26;;;;;;;30.45;19.10;;;11.60;99.90;;;;;;5105576;28;20172;-95
2021/11/07 09:33:36;;;;;;;28.35;20.73;;;11.60;99.90;;;;;;5113134;28;20231;-89
2021/11/07 09:38:49;;;;;;;24.73;18.63;;;11.60;99.90;;;;;;5114733;28;20194;-92
2021/11/07 09:41:30;;;;;;;28.17;19.85;;;11.60;99.90;;;;;;5096487;28;20191;-94
2021/11/07 09:46:43;;;;;;;25.73;18.80;;;11.70;99.90;;;;;;5115247;28;20187;-89
2021/11/07 09:51:49;;;;;;;27.40;19.10;;;11.90;99.90;;;;;;5114961;28;20187;-89
2021/11/07 09:54:18;;;;;;;29.52;21.60;;;12.00;99.90;;;;;;5095936;28;20219;-89
2021/11/07 09:56:49;;;;;;;21.25;16.63;;;12.00;99.90;;;;;;5103324;28;20200;-88
2021/11/07 09:59:15;;;;;;;28.58;19.55;;;12.00;99.90;;;;;;5108002;28;20234;-93
2021/11/07 10:01:41;;;;;;;30.35;23.15;;;12.10;99.90;;;;;;5115104;28;20184;-94
2021/11/07 10:04:12;;;;;;;28.33;22.48;;;12.10;99.90;;;;;;5097470;28;20192;-94
2021/11/07 10:06:53;;;;;;;27.05;20.83;;;12.10;99.90;;;;;;5099886;28;20227;-88
2021/11/07 10:09:37;;;;;;;29.70;21.50;;;12.10;99.90;;;;;;5119181;28;20236;-93
2021/11/07 10:12:17;;;;;;;33.53;22.48;;;12.10;99.90;;;;;;5100118;28;20183;-94
2021/11/07 10:14:55;;;;;;;31.38;22.60;;;12.10;99.90;;;;;;5099803;28;20585;-94
2021/11/07 10:17:38;;;;;;;33.13;22.98;;;12.10;99.90;;;;;;5118037;28;20183;-94
2021/11/07 10:20:30;;;;;;;30.45;22.92;;;12.20;99.90;;;;;;5099592;28;20168;-89
2021/11/07 10:22:59;;;;;;;32.40;23.05;;;12.10;99.90;;;;;;5117157;28;20564;-94
2021/11/07 10:25:35;;;;;;;34.72;24.75;;;12.20;99.90;;;;;;5099683;28;20693;-89
2021/11/07 10:28:10;;;;;;;29.85;24.38;;;12.20;99.90;;;;;;5110333;28;20198;-93
2021/11/07 10:30:43;;;;;;;31.65;24.83;;;12.20;99.90;;;;;;5123513;28;20565;-93
2021/11/07 10:33:22;;;;;;;31.40;23.90;;;12.20;99.90;;;;;;5099784;28;20284;-89
2021/11/07 10:36:39;;;;;;;29.73;24.15;;;12.40;99.90;;;;;;5084405;28;20203;-95
2021/11/07 10:52:24;;;;;;;34.08;24.58;;;12.70;99.90;;;;;;5128836;28;20170;-90
2021/11/07 10:54:50;;;;;;;33.50;24.58;;;12.70;99.90;;;;;;5100874;28;20219;-90
2021/11/07 10:57:21;;;;;;;35.13;24.80;;;12.70;99.90;;;;;;5100389;28;20585;-88
2021/11/07 11:00:11;;;;;;;36.53;27.42;;;12.70;99.90;;;;;;5098632;28;20464;-89
2021/11/07 11:02:48;;;;;;;35.38;25.27;;;12.70;99.90;;;;;;5098976;28;20184;-89
2021/11/07 11:05:25;;;;;;;39.43;25.40;;;12.70;99.90;;;;;;5098649;28;20184;-93
2021/11/07 11:08:01;;;;;;;36.23;23.87;;;12.80;99.90;;;;;;5098857;28;20499;-89
2021/11/07 11:10:52;;;;;;;38.40;25.30;;;12.80;99.90;;;;;;5099094;28;20430;-94
2021/11/07 11:17:03;;;;;;;33.77;20.83;;;13.00;99.90;;;;;;5105442;28;20509;-92
2021/11/07 11:22:53;;;;;;;31.37;21.00;;;13.20;99.90;;;;;;5118956;28;20414;-88
2021/11/07 11:25:43;;;;;;;35.80;23.73;;;13.20;99.90;;;;;;5106870;28;20935;-93
2021/11/07 11:31:01;;;;;;;31.33;20.40;;;13.30;99.90;;;;;;5116255;28;20952;-93
2021/11/07 11:36:22;;;;;;;30.63;21.43;;;13.50;99.90;;;;;;5116500;28;20404;-93
2021/11/07 11:38:56;;;;;;;32.67;21.30;;;13.50;99.90;;;;;;5097712;28;20504;-88
2021/11/07 11:41:40;;;;;;;29.80;21.23;;;13.50;99.90;;;;;;5098893;28;20500;-94
2021/11/07 11:44:06;;;;;;;30.47;23.53;;;13.50;99.90;;;;;;5097977;28;20437;-90
2021/11/07 11:46:44;;;;;;;29.30;20.97;;;13.60;99.90;;;;;;5098187;28;20916;-94
2021/11/07 11:49:46;;;;;;;28.63;19.30;;;13.60;99.90;;;;;;5098854;28;20436;-88
2021/11/07 11:52:32;;;;;;;27.27;18.97;;;13.70;99.90;;;;;;5106448;28;20431;-92
2021/11/07 11:55:07;;;;;;;24.47;17.73;;;13.70;99.90;;;;;;5104179;28;20471;-92
2021/11/07 12:03:32;;;;;;;25.30;17.50;;;13.70;99.90;;;;;;5116152;28;20622;-89
2021/11/07 12:06:04;;;;;;;25.00;18.43;;;13.70;99.90;;;;;;5115805;28;20781;-88
2021/11/07 12:11:33;;;;;;;24.10;18.00;;;13.80;99.90;;;;;;5115410;28;20936;-89
2021/11/07 12:14:14;;;;;;;24.70;18.27;;;13.80;99.90;;;;;;5097806;28;20474;-89
2021/11/07 12:16:57;;;;;;;25.73;18.40;;;13.80;99.90;;;;;;5098527;28;20504;-93
2021/11/07 12:19:49;;;;;;;30.90;21.83;;;13.90;99.90;;;;;;5104138;28;20438;-94
2021/11/07 12:22:30;;;;;;;33.87;23.80;;;13.90;99.90;;;;;;5093627;28;20499;-89
2021/11/07 12:25:07;;;;;;;32.37;22.70;;;13.80;99.90;;;;;;5104293;28;20411;-88
2021/11/07 12:27:49;;;;;;;30.57;22.10;;;13.80;99.90;;;;;;5096493;28;20419;-95
2021/11/07 12:30:26;;;;;;;32.07;22.33;;;13.70;99.90;;;;;;5115374;28;20462;-88
2021/11/07 12:33:06;;;;;;;32.10;22.47;;;13.60;99.90;;;;;;5097402;28;20440;-88
2021/11/07 12:35:41;;;;;;;38.63;26.00;;;13.50;99.90;;;;;;5097675;28;21040;-94
2021/11/07 12:41:04;;;;;;;32.07;22.67;;;13.40;99.90;;;;;;5115196;28;20397;-89
2021/11/07 12:43:33;;;;;;;31.47;22.63;;;13.30;99.90;;;;;;5096901;28;20504;-88
2021/11/07 12:49:21;;;;;;;30.73;20.37;;;13.40;99.90;;;;;;5116724;28;20522;-89
2021/11/07 12:51:56;;;;;;;29.57;21.37;;;13.30;99.90;;;;;;5088925;28;20501;-88
2021/11/07 12:54:24;;;;;;;32.60;24.80;;;13.40;99.90;;;;;;5097793;28;20467;-94
2021/11/07 12:57:04;;;;;;;23.17;18.73;;;13.30;99.90;;;;;;5120768;28;20395;-94
2021/11/07 12:59:35;;;;;;;23.90;18.70;;;13.40;99.90;;;;;;5097088;28;20947;-92
2021/11/07 13:02:28;;;;;;;23.07;18.37;;;13.40;99.90;;;;;;5097216;28;20424;-94
2021/11/07 13:05:07;;;;;;;23.37;18.57;;;13.40;99.90;;;;;;5097016;28;20555;-89
2021/11/07 13:07:51;;;;;;;25.03;18.70;;;13.40;99.90;;;;;;5115099;28;20463;-93
2021/11/07 13:10:25;;;;;;;22.97;16.33;;;13.40;99.90;;;;;;5096892;28;20434;-89
2021/11/07 13:13:01;;;;;;;21.43;16.20;;;13.40;99.90;;;;;;5097342;28;20420;-94
2021/11/07 13:21:02;;;;;;;23.60;18.17;;;13.40;99.90;;;;;;5115044;28;20420;-89
2021/11/07 13:26:17;;;;;;;30.10;18.80;;;13.40;99.90;;;;;;5114756;28;20431;-88
2021/11/07 13:34:23;;;;;;;25.17;19.00;;;13.40;99.90;;;;;;5114797;28;20672;-88
2021/11/07 13:36:49;;;;;;;27.20;19.20;;;13.40;99.90;;;;;;5096727;28;20455;-90
2021/11/07 13:39:29;;;;;;;25.50;20.10;;;13.40;99.90;;;;;;5098424;28;20539;-88
2021/11/07 13:42:07;;;;;;;29.40;20.70;;;13.40;99.90;;;;;;5122594;28;20424;-93
2021/11/07 13:44:43;;;;;;;26.93;19.57;;;13.40;99.90;;;;;;5115501;28;20439;-90
2021/11/07 13:47:09;;;;;;;37.40;24.30;;;13.40;99.90;;;;;;5100763;28;20431;-89
2021/11/07 13:49:52;;;;;;;32.20;24.00;;;13.40;99.90;;;;;;5099999;28;20749;-88
2021/11/07 13:52:18;;;;;;;29.37;21.77;;;13.30;99.90;;;;;;5100483;28;20184;-89
2021/11/07 13:54:45;;;;;;;28.07;21.63;;;13.30;99.90;;;;;;5100444;28;20543;-89
2021/11/07 13:57:11;;;;;;;29.80;21.60;;;13.30;99.90;;;;;;5100356;28;20419;-89
2021/11/07 13:59:40;;;;;;;27.73;22.10;;;13.30;99.90;;;;;;5100454;28;20506;-94
2021/11/07 14:02:19;;;;;;;29.23;21.30;;;13.40;99.90;;;;;;5100297;28;20436;-93
2021/11/07 14:04:50;;;;;;;44.23;28.57;;;13.30;99.90;;;;;;5118381;28;20424;-94
2021/11/07 14:07:24;;;;;;;50.00;31.93;;;13.30;99.90;;;;;;5100494;28;20534;-94
2021/11/07 14:10:05;;;;;;;41.60;29.10;;;13.30;99.90;;;;;;5128487;28;20444;-94
2021/11/07 14:12:46;;;;;;;40.00;28.23;;;13.30;99.90;;;;;;5119779;28;20496;-94
2021/11/07 14:15:29;;;;;;;39.00;25.07;;;13.30;99.90;;;;;;5102214;28;20607;-95
2021/11/07 14:18:22;;;;;;;35.70;25.77;;;13.30;99.90;;;;;;5099920;28;20543;-94
2021/11/07 14:21:03;;;;;;;40.97;27.90;;;13.30;99.90;;;;;;5099947;28;20402;-94
2021/11/07 14:23:40;;;;;;;41.37;29.23;;;13.20;99.90;;;;;;5101815;28;20432;-94
2021/11/07 14:26:41;;;;;;;48.42;29.33;;;13.20;99.90;;;;;;5102348;28;20417;-94
2021/11/07 14:32:18;;;;;;;39.77;26.57;;;13.10;99.90;;;;;;5125660;28;20449;-89
2021/11/07 14:53:30;;;;;;;44.13;29.67;;;12.70;99.90;;;;;;5117711;28;20497;-93
2021/11/07 15:01:33;;;;;;;48.80;32.40;;;12.60;99.90;;;;;;5117380;28;20187;-93
2021/11/07 15:04:10;;;;;;;48.65;31.25;;;12.60;99.90;;;;;;5098760;28;20906;-93
2021/11/07 15:06:44;;;;;;;51.70;32.00;;;12.50;99.90;;;;;;5098544;28;20695;-94
2021/11/07 15:12:26;;;;;;;53.60;35.25;;;12.40;99.90;;;;;;5117485;28;20172;-89
2021/11/07 15:18:02;;;;;;;50.93;35.20;;;12.30;99.90;;;;;;5116952;28;20267;-93
2021/11/07 15:20:47;;;;;;;55.80;36.10;;;12.20;99.90;;;;;;5105516;28;20420;-91